Diane H — WUR7250 — position and weather

sailwx.info

Track history (hours):
 
Tides and Currents Weather Stations Pressure Air Temp Water Temp Dewpoint Dewpoint Depression Visibility Wind Speed Wind Dir Waves Ship Positions

Diane H

Owner: BOYER TOWING INC, KETCHIKAN, AK. More information available from US FCC via Universal Licensing System and Coast Guard Vessel Documentation Center.

Last reported at 2016-May-29 04:33 UTC. Time now 2016-May-29 05:39 UTC.
Position N 52°06' W 128°07'.

Type: Towing. MMSI: 366673090.

Date/timePositionNaut miles runAvg speedWind from/ knotsBaromVisibWave heightAir tempDewpointWater temp
2016-May-29 04:33N 52°06' W 128°07'7 7.5
2016-May-29 03:33N 52°03' W 127°56'31 7.6
2016-May-28 23:28N 51°32' W 127°52'16 7.7
2016-May-28 21:24N 51°16' W 127°52'6 7.5
2016-May-28 20:33N 51°10' W 127°50'8 7.6
2016-May-28 19:33N 51°05' W 127°42'8 8.1
2016-May-28 18:33N 50°59' W 127°33'9 8.7
2016-May-28 17:33N 50°54' W 127°22'9 8.2
2016-May-28 16:24N 50°49' W 127°09'18 7.9
2016-May-28 14:08N 50°38' W 126°47'6 7.1
2016-May-28 13:18N 50°33' W 126°41'7 7.7
2016-May-28 12:24N 50°30' W 126°31'43 8.8
2016-May-28 07:31N 50°20' W 125°25'8 8.9
2016-May-28 06:33N 50°12' W 125°22'8 7.7
2016-May-28 05:33N 50°05' W 125°16'7 6.8
2016-May-28 04:33N 49°59' W 125°11'7 7.6
2016-May-28 03:33N 49°54' W 125°02'8 8.2
2016-May-28 02:33N 49°49' W 124°53'8 8.4
2016-May-28 01:33N 49°44' W 124°42'8 7.7
2016-May-28 00:32N 49°39' W 124°33'9 8.7
2016-May-27 23:31N 49°34' W 124°21'9 9.3
2016-May-27 22:32N 49°29' W 124°09'8 8.5
2016-May-27 21:32N 49°24' W 123°59'9 8.3
2016-May-27 20:25N 49°18' W 123°48'7 8.2
2016-May-27 19:33N 49°14' W 123°39'8 7.9
2016-May-27 18:32N 49°09' W 123°30'8 7.8
2016-May-27 17:33N 49°04' W 123°21'8 7.5
2016-May-27 16:30N 48°59' W 123°12'7 7.7
2016-May-27 15:33N 48°54' W 123°03'8 7.8
2016-May-27 14:33N 48°49' W 122°54'8 8.3
2016-May-27 13:33N 48°44' W 122°44'7 7.0
2016-May-27 12:33N 48°37' W 122°45'7 7.4
2016-May-27 11:33N 48°29' W 122°44'32 6.4
2016-May-27 06:33N 47°58' W 122°34'8 8.1
2016-May-27 05:33N 47°51' W 122°27'8 7.9
2016-May-27 04:33N 47°43' W 122°26'7 7.2
2016-May-27 03:33N 47°36' W 122°23'3 2.6
2016-May-27 02:33N 47°34' W 122°21'2 1.9
2016-May-27 01:33N 47°32' W 122°20'0 0.0
2016-May-27 00:32N 47°32' W 122°20'2 0.1
2016-May-25 18:17N 47°34' W 122°21'6 8.8
2016-May-25 17:33N 47°40' W 122°27'2 2.2
2016-May-25 16:34N 47°40' W 122°23'0 0.0
2016-May-25 15:33N 47°40' W 122°23'1 0.8
2016-May-25 14:33N 47°40' W 122°24'7 7.2
2016-May-25 13:33N 47°33' W 122°21'  
2016-May-21 17:07N 47°32' W 122°20'0 0.0
2016-May-20 18:30N 47°32' W 122°19'2 1.9
2016-May-20 17:33N 47°34' W 122°21'2 1.8
2016-May-20 16:32N 47°35' W 122°22'0 0.1
2016-May-20 15:31N 47°35' W 122°22'3 3.5
2016-May-20 14:33N 47°32' W 122°20'  
Track history (hours):
 
Tides and Currents Weather Stations Pressure Air Temp Water Temp Dewpoint Dewpoint Depression Visibility Wind Speed Wind Dir Waves Ship Positions

Diane H

Owner: BOYER TOWING INC, KETCHIKAN, AK. More information available from US FCC via Universal Licensing System and Coast Guard Vessel Documentation Center.

Last reported at 2016-May-29 04:33 UTC. Time now 2016-May-29 05:39 UTC.
Position N 52°06' W 128°07'.

Type: Towing. MMSI: 366673090.

Date/timePositionNaut miles runAvg speedWind from/ knotsBaromVisibWave heightAir tempDewpointWater temp
2016-May-29 04:33N 52°06' W 128°07'7 7.5
2016-May-29 03:33N 52°03' W 127°56'31 7.6
2016-May-28 23:28N 51°32' W 127°52'16 7.7
2016-May-28 21:24N 51°16' W 127°52'6 7.5
2016-May-28 20:33N 51°10' W 127°50'8 7.6
2016-May-28 19:33N 51°05' W 127°42'8 8.1
2016-May-28 18:33N 50°59' W 127°33'9 8.7
2016-May-28 17:33N 50°54' W 127°22'9 8.2
2016-May-28 16:24N 50°49' W 127°09'18 7.9
2016-May-28 14:08N 50°38' W 126°47'6 7.1
2016-May-28 13:18N 50°33' W 126°41'7 7.7
2016-May-28 12:24N 50°30' W 126°31'43 8.8
2016-May-28 07:31N 50°20' W 125°25'8 8.9
2016-May-28 06:33N 50°12' W 125°22'8 7.7
2016-May-28 05:33N 50°05' W 125°16'7 6.8
2016-May-28 04:33N 49°59' W 125°11'7 7.6
2016-May-28 03:33N 49°54' W 125°02'8 8.2
2016-May-28 02:33N 49°49' W 124°53'8 8.4
2016-May-28 01:33N 49°44' W 124°42'8 7.7
2016-May-28 00:32N 49°39' W 124°33'9 8.7
2016-May-27 23:31N 49°34' W 124°21'9 9.3
2016-May-27 22:32N 49°29' W 124°09'8 8.5
2016-May-27 21:32N 49°24' W 123°59'9 8.3
2016-May-27 20:25N 49°18' W 123°48'7 8.2
2016-May-27 19:33N 49°14' W 123°39'8 7.9
2016-May-27 18:32N 49°09' W 123°30'8 7.8
2016-May-27 17:33N 49°04' W 123°21'8 7.5
2016-May-27 16:30N 48°59' W 123°12'7 7.7
2016-May-27 15:33N 48°54' W 123°03'8 7.8
2016-May-27 14:33N 48°49' W 122°54'8 8.3
2016-May-27 13:33N 48°44' W 122°44'7 7.0
2016-May-27 12:33N 48°37' W 122°45'7 7.4
2016-May-27 11:33N 48°29' W 122°44'32 6.4
2016-May-27 06:33N 47°58' W 122°34'8 8.1
2016-May-27 05:33N 47°51' W 122°27'8 7.9
2016-May-27 04:33N 47°43' W 122°26'7 7.2
2016-May-27 03:33N 47°36' W 122°23'3 2.6
2016-May-27 02:33N 47°34' W 122°21'2 1.9
2016-May-27 01:33N 47°32' W 122°20'0 0.0
2016-May-27 00:32N 47°32' W 122°20'2 0.1
2016-May-25 18:17N 47°34' W 122°21'6 8.8
2016-May-25 17:33N 47°40' W 122°27'2 2.2
2016-May-25 16:34N 47°40' W 122°23'0 0.0
2016-May-25 15:33N 47°40' W 122°23'1 0.8
2016-May-25 14:33N 47°40' W 122°24'7 7.2
2016-May-25 13:33N 47°33' W 122°21'  
2016-May-21 17:07N 47°32' W 122°20'0 0.0
2016-May-20 18:30N 47°32' W 122°19'2 1.9
2016-May-20 17:33N 47°34' W 122°21'2 1.8
2016-May-20 16:32N 47°35' W 122°22'0 0.1
2016-May-20 15:31N 47°35' W 122°22'3 3.5
2016-May-20 14:33N 47°32' W 122°20'  

Dump ship's entire track history